Time;durP1;ratioP1;P1;durP2;ratioP2;P2;SDS_P1;SDS_P2;PMS_P1;PMS_P2;Temp;Humidity;BMP_temperature;BMP_pressure;BME280_temperature;BME280_humidity;BME280_pressure;Samples;Min_cycle;Max_cycle;Signal;HPM_P1;HPM_P2
2024/02/14 00:00:36;;;;;;;11.27;5.20;;;;;;;-7.74;100.00;100309.50;4936523;28;20357;-66
2024/02/14 00:03:03;;;;;;;11.07;4.60;;;;;;;-7.75;100.00;100302.66;4920507;28;20385;-66
2024/02/14 00:05:30;;;;;;;10.87;5.57;;;;;;;-7.68;100.00;100317.13;4936890;28;20086;-66
2024/02/14 00:07:56;;;;;;;11.33;5.40;;;;;;;-7.65;100.00;100315.34;4920573;28;20294;-66
2024/02/14 00:10:23;;;;;;;13.00;5.03;;;;;;;-7.66;100.00;100313.66;4936560;28;20062;-66
2024/02/14 00:12:52;;;;;;;8.13;4.30;;;;;;;-7.56;100.00;100322.91;4954483;28;20290;-67
2024/02/14 00:15:19;;;;;;;8.93;4.80;;;;;;;-7.64;100.00;100305.91;4963860;28;20298;-67
2024/02/14 00:17:45;;;;;;;9.93;4.97;;;;;;;-7.97;100.00;100304.78;4958013;28;20726;-67
2024/02/14 00:20:13;;;;;;;8.50;5.07;;;;;;;-7.79;100.00;100294.13;4958260;28;20408;-66
2024/02/14 00:22:55;;;;;;;10.18;4.63;;;;;;;-7.76;100.00;100306.97;4974669;28;20369;-67
2024/02/14 00:25:22;;;;;;;11.03;5.40;;;;;;;-7.75;100.00;100303.50;4976920;28;20173;-66
2024/02/14 00:27:54;;;;;;;9.47;5.03;;;;;;;-7.90;100.00;100308.94;5000165;28;20350;-67
2024/02/14 00:30:23;;;;;;;10.13;5.10;;;;;;;-7.88;100.00;100302.03;4996685;28;20336;-66
2024/02/14 00:33:12;;;;;;;9.30;5.00;;;;;;;-7.91;100.00;100309.84;4988549;28;20600;-66
2024/02/14 00:35:40;;;;;;;11.30;5.30;;;;;;;-7.87;100.00;100321.78;4980709;28;20307;-66
2024/02/14 00:38:08;;;;;;;7.43;4.47;;;;;;;-7.96;100.00;100316.78;4958472;28;20311;-66
2024/02/14 00:40:36;;;;;;;11.07;5.00;;;;;;;-7.88;100.00;100325.25;4920444;29;20295;-66
2024/02/14 00:43:02;;;;;;;9.00;4.60;;;;;;;-8.04;100.00;100313.50;4920238;29;20698;-66
2024/02/14 00:45:30;;;;;;;12.23;5.43;;;;;;;-7.93;100.00;100316.72;4903898;29;20302;-66
2024/02/14 00:47:59;;;;;;;12.27;5.00;;;;;;;-7.92;100.00;100322.75;4936113;28;20117;-66
2024/02/14 00:50:25;;;;;;;10.50;4.97;;;;;;;-7.97;100.00;100322.81;4920021;28;20381;-66
2024/02/14 00:52:54;;;;;;;13.20;5.03;;;;;;;-7.92;100.00;100326.19;4933235;29;20195;-66
2024/02/14 00:55:22;;;;;;;11.40;4.93;;;;;;;-8.06;100.00;100319.56;4921066;28;20303;-66
2024/02/14 00:57:51;;;;;;;10.50;4.77;;;;;;;-8.05;100.00;100324.69;4937900;28;20295;-66
2024/02/14 01:00:19;;;;;;;9.93;5.00;;;;;;;-8.11;100.00;100323.94;4954841;28;20290;-66
2024/02/14 01:02:44;;;;;;;10.30;5.30;;;;;;;-8.14;100.00;100327.41;4954375;28;20293;-66
2024/02/14 01:05:13;;;;;;;9.23;5.27;;;;;;;-8.11;100.00;100324.78;4970101;28;20421;-66
2024/02/14 01:07:39;;;;;;;10.73;5.30;;;;;;;-8.27;100.00;100325.94;4970427;28;20046;-66
2024/02/14 01:10:06;;;;;;;9.33;5.10;;;;;;;-8.20;100.00;100330.09;4955020;28;20301;-66
2024/02/14 01:12:36;;;;;;;9.15;4.93;;;;;;;-8.13;100.00;100320.56;4973873;28;20309;-66
2024/02/14 01:15:02;;;;;;;11.43;4.73;;;;;;;-8.24;100.00;100317.34;4976906;28;20209;-66
2024/02/14 01:17:36;;;;;;;8.53;5.17;;;;;;;-8.32;100.00;100320.03;4992997;28;20368;-66
2024/02/14 01:20:03;;;;;;;10.60;4.97;;;;;;;-8.27;100.00;100323.38;4978446;28;20401;-66
2024/02/14 01:22:33;;;;;;;13.23;5.43;;;;;;;-8.32;100.00;100317.47;4953156;28;20061;-66
2024/02/14 01:25:12;;;;;;;11.70;5.07;;;;;;;-8.30;100.00;100323.41;4934610;28;20066;-65
2024/02/14 01:27:39;;;;;;;9.03;4.77;;;;;;;-8.19;100.00;100324.06;4929039;28;20309;-65
2024/02/14 01:30:05;;;;;;;9.53;4.67;;;;;;;-8.21;100.00;100315.50;4961086;28;20282;-66
2024/02/14 01:32:38;;;;;;;11.20;5.00;;;;;;;-8.10;100.00;100330.81;4961703;28;20712;-66
2024/02/14 01:35:06;;;;;;;9.10;4.77;;;;;;;-8.15;100.00;100335.19;4961469;28;20300;-66
2024/02/14 01:37:35;;;;;;;10.30;4.80;;;;;;;-8.08;100.00;100329.88;4945474;28;20309;-66
2024/02/14 01:40:06;;;;;;;9.33;5.20;;;;;;;-8.47;100.00;100333.13;4945282;28;20444;-66
2024/02/14 01:42:48;;;;;;;10.27;4.63;;;;;;;-8.28;100.00;100333.69;4965053;28;20361;-65
2024/02/14 01:45:16;;;;;;;11.60;5.10;;;;;;;-8.29;100.00;100345.75;4944694;28;20309;-65
2024/02/14 01:48:02;;;;;;;8.23;4.73;;;;;;;-8.19;100.00;100347.25;4952123;28;20379;-65
2024/02/14 01:50:29;;;;;;;10.97;4.93;;;;;;;-8.29;100.00;100344.88;4966822;28;20350;-65
2024/02/14 01:52:59;;;;;;;10.53;4.97;;;;;;;-8.24;100.00;100349.06;4976787;28;20319;-65
2024/02/14 01:55:27;;;;;;;10.47;4.60;;;;;;;-8.47;100.00;100346.00;4999107;28;20762;-65
2024/02/14 01:57:55;;;;;;;11.13;4.82;;;;;;;-8.60;100.00;100364.25;4984995;28;20725;-65
2024/02/14 02:00:21;;;;;;;9.70;5.07;;;;;;;-8.47;100.00;100361.47;5015198;28;20060;-65
2024/02/14 02:02:49;;;;;;;9.80;4.67;;;;;;;-8.39;100.00;100364.78;5016467;28;20284;-65
2024/02/14 02:05:19;;;;;;;9.80;4.73;;;;;;;-8.38;100.00;100363.94;5006006;28;20307;-67
2024/02/14 02:07:49;;;;;;;8.40;4.80;;;;;;;-8.35;100.00;100355.28;4987472;28;20654;-65
2024/02/14 02:10:17;;;;;;;9.87;5.30;;;;;;;-8.38;100.00;100363.06;5005690;28;20649;-66
2024/02/14 02:13:03;;;;;;;13.03;5.10;;;;;;;-8.57;100.00;100366.78;5012127;28;20291;-65
2024/02/14 02:15:49;;;;;;;8.07;4.67;;;;;;;-8.50;100.00;100352.97;5011386;28;20276;-66
2024/02/14 02:18:35;;;;;;;8.83;4.93;;;;;;;-8.48;100.00;100364.06;5010803;28;20295;-65
2024/02/14 02:21:23;;;;;;;10.77;5.63;;;;;;;-8.61;100.00;100370.28;5010708;28;20331;-65
2024/02/14 02:23:53;;;;;;;12.40;5.57;;;;;;;-8.59;100.00;100363.41;5021059;28;20287;-66
2024/02/14 02:26:25;;;;;;;8.20;4.67;;;;;;;-8.65;100.00;100369.47;4987292;28;20804;-66
2024/02/14 02:29:11;;;;;;;7.77;4.93;;;;;;;-8.61;100.00;100366.00;5010889;28;20362;-66
2024/02/14 02:31:38;;;;;;;11.17;4.87;;;;;;;-8.60;100.00;100364.25;4985934;28;20326;-66
2024/02/14 02:34:06;;;;;;;12.40;5.30;;;;;;;-8.53;100.00;100369.28;4986077;28;20272;-66
2024/02/14 02:36:33;;;;;;;6.00;3.70;;;;;;;-8.55;100.00;100373.63;4986124;28;20781;-66
2024/02/14 02:39:20;;;;;;;10.97;4.40;;;;;;;-8.58;100.00;100375.38;5011018;28;20804;-66
2024/02/14 02:42:05;;;;;;;12.67;5.23;;;;;;;-8.62;100.00;100377.16;5010537;28;20319;-66
2024/02/14 02:44:56;;;;;;;9.53;4.37;;;;;;;-8.60;100.00;100380.56;5024428;28;20303;-66
2024/02/14 02:47:51;;;;;;;8.07;4.70;;;;;;;-8.76;100.00;100373.91;5025444;28;20284;-66
2024/02/14 02:50:37;;;;;;;7.07;4.10;;;;;;;-8.68;100.00;100371.22;5023425;28;20309;-66
2024/02/14 02:56:40;;;;;;;12.13;5.63;;;;;;;-8.74;100.00;100386.75;5040765;28;20298;-66
2024/02/14 02:59:07;;;;;;;8.07;4.33;;;;;;;-8.79;100.00;100391.16;5002501;28;20634;-66
2024/02/14 03:01:40;;;;;;;11.73;5.37;;;;;;;-8.71;100.00;100385.00;5014961;28;20276;-66
2024/02/14 03:04:31;;;;;;;8.27;5.37;;;;;;;-8.70;100.00;100396.16;5023295;28;20283;-66
2024/02/14 03:07:17;;;;;;;9.73;5.53;;;;;;;-8.78;100.00;100401.41;5038162;28;20287;-66
2024/02/14 03:10:08;;;;;;;10.13;4.97;;;;;;;-8.81;100.00;100409.19;5009964;28;20064;-66
2024/02/14 03:13:11;;;;;;;12.23;5.30;;;;;;;-8.81;100.00;100397.16;4998777;28;20285;-66
2024/02/14 03:15:58;;;;;;;10.13;4.67;;;;;;;-8.79;100.00;100407.41;4984313;28;20293;-66
2024/02/14 03:18:27;;;;;;;9.00;5.17;;;;;;;-8.78;100.00;100404.00;4962687;28;20293;-66
2024/02/14 03:20:54;;;;;;;8.87;4.50;;;;;;;-8.74;100.00;100409.94;4978286;28;20299;-66
2024/02/14 03:23:20;;;;;;;12.27;5.33;;;;;;;-8.72;100.00;100413.34;4961900;28;20281;-67
2024/02/14 03:25:46;;;;;;;9.50;5.37;;;;;;;-8.82;100.00;100404.88;4946052;28;20148;-66
2024/02/14 03:28:14;;;;;;;9.63;4.87;;;;;;;-8.74;100.00;100415.06;4994914;28;20191;-66
2024/02/14 03:30:45;;;;;;;9.87;5.13;;;;;;;-8.82;100.00;100416.03;4978629;28;20140;-66
2024/02/14 03:33:15;;;;;;;9.97;5.10;;;;;;;-8.92;100.00;100409.28;5010599;28;20312;-68
2024/02/14 03:35:43;;;;;;;12.67;5.70;;;;;;;-8.86;100.00;100413.53;4964245;28;20301;-66
2024/02/14 03:38:29;;;;;;;9.73;5.50;;;;;;;-8.77;100.00;100421.13;4975943;28;20287;-66
2024/02/14 03:41:06;;;;;;;10.63;4.87;;;;;;;-8.96;100.00;100414.50;4928308;28;20296;-65
2024/02/14 03:43:32;;;;;;;9.57;4.83;;;;;;;-9.04;100.00;100422.31;4958877;28;20794;-66
2024/02/14 03:46:00;;;;;;;12.00;5.43;;;;;;;-9.02;100.00;100428.31;4927185;28;20309;-65
2024/02/14 03:48:32;;;;;;;13.02;5.72;;;;;;;-9.11;100.00;100427.56;4943144;28;20429;-66
2024/02/14 03:50:58;;;;;;;13.07;5.45;;;;;;;-9.41;100.00;100423.59;5011724;28;20131;-65
2024/02/14 03:53:24;;;;;;;13.67;5.63;;;;;;;-9.33;100.00;100429.50;4981969;28;20491;-66
2024/02/14 03:55:53;;;;;;;10.40;5.37;;;;;;;-9.27;100.00;100431.19;4982001;28;20037;-66
2024/02/14 03:58:23;;;;;;;10.80;5.07;;;;;;;-9.24;100.00;100426.84;5011718;28;20060;-66
2024/02/14 04:00:55;;;;;;;13.43;5.45;;;;;;;-9.11;100.00;100432.69;4982976;28;20283;-66
2024/02/14 04:03:22;;;;;;;7.10;4.37;;;;;;;-9.15;100.00;100431.03;5030633;28;20068;-66
2024/02/14 04:05:49;;;;;;;10.57;4.80;;;;;;;-9.10;100.00;100434.41;4998165;28;20296;-66
2024/02/14 04:08:17;;;;;;;13.60;6.47;;;;;;;-9.28;100.00;100432.03;4998385;28;20045;-66
2024/02/14 04:10:46;;;;;;;15.40;6.30;;;;;;;-9.22;100.00;100434.53;5030958;28;20288;-66
2024/02/14 04:13:12;;;;;;;11.10;5.13;;;;;;;-9.25;100.00;100438.00;4982550;28;20180;-66
2024/02/14 04:15:42;;;;;;;12.93;5.10;;;;;;;-9.11;100.00;100448.13;4982025;28;20344;-66
2024/02/14 04:18:11;;;;;;;11.10;5.53;;;;;;;-9.10;100.00;100447.28;5031204;28;20052;-66
2024/02/14 04:20:40;;;;;;;7.47;4.40;;;;;;;-9.01;100.00;100448.00;4982065;28;20627;-67
2024/02/14 04:23:07;;;;;;;11.60;5.63;;;;;;;-9.04;100.00;100463.47;5011805;28;20296;-66
2024/02/14 04:25:43;;;;;;;10.63;5.33;;;;;;;-9.06;100.00;100451.50;4982206;28;20299;-66
2024/02/14 04:28:11;;;;;;;9.00;4.80;;;;;;;-9.09;100.00;100449.84;5014705;28;20320;-66
2024/02/14 04:30:41;;;;;;;8.70;4.80;;;;;;;-8.94;100.00;100452.22;4984478;28;20303;-66
2024/02/14 04:33:30;;;;;;;9.93;4.43;;;;;;;-8.91;100.00;100461.63;5032460;28;20735;-66
2024/02/14 04:35:58;;;;;;;10.63;5.23;;;;;;;-8.99;100.00;100460.84;5015528;28;20288;-66
2024/02/14 04:38:29;;;;;;;15.10;5.30;;;;;;;-8.96;100.00;100474.53;4981431;28;20292;-66
2024/02/14 04:40:59;;;;;;;10.60;5.57;;;;;;;-8.92;100.00;100470.22;4999916;28;20288;-66
2024/02/14 04:43:27;;;;;;;15.47;5.70;;;;;;;-9.27;100.00;100470.59;5012484;28;20053;-67
2024/02/14 04:45:56;;;;;;;15.17;5.90;;;;;;;-9.13;100.00;100466.16;4981361;28;20293;-66
2024/02/14 04:48:22;;;;;;;11.73;5.73;;;;;;;-9.20;100.00;100469.69;4988456;28;20050;-66
2024/02/14 04:51:19;;;;;;;13.57;6.00;;;;;;;-9.22;100.00;100473.13;4938684;28;20278;-67
2024/02/14 04:53:47;;;;;;;10.27;5.33;;;;;;;-9.24;100.00;100487.72;4946079;28;20058;-67
2024/02/14 04:56:15;;;;;;;10.00;5.13;;;;;;;-9.34;100.00;100478.38;4980526;28;20285;-67
2024/02/14 04:58:57;;;;;;;12.03;5.70;;;;;;;-9.15;100.00;100487.63;4952893;28;20060;-68
2024/02/14 05:01:26;;;;;;;9.07;5.20;;;;;;;-9.25;100.00;100481.72;4976170;28;20297;-66
2024/02/14 05:03:55;;;;;;;9.30;4.57;;;;;;;-9.16;100.00;100491.06;4952694;28;20784;-67
2024/02/14 05:06:23;;;;;;;10.40;5.23;;;;;;;-9.12;100.00;100487.59;4949818;28;20394;-69
2024/02/14 05:08:53;;;;;;;10.67;5.33;;;;;;;-9.06;100.00;100490.09;4992597;28;20304;-68
2024/02/14 05:11:22;;;;;;;13.03;5.13;;;;;;;-9.00;100.00;100501.19;4968447;28;20354;-67
2024/02/14 05:13:53;;;;;;;12.40;5.43;;;;;;;-9.03;100.00;100501.22;4936017;28;20321;-67
2024/02/14 05:16:21;;;;;;;13.07;5.77;;;;;;;-9.10;100.00;100509.03;4952792;28;20631;-66
2024/02/14 05:18:47;;;;;;;10.73;5.40;;;;;;;-9.00;100.00;100493.47;4945093;28;20347;-66
2024/02/14 05:21:16;;;;;;;12.67;5.47;;;;;;;-8.98;100.00;100502.00;4993472;28;20058;-65
2024/02/14 05:23:44;;;;;;;12.17;6.00;;;;;;;-8.94;100.00;100498.53;4991556;28;20305;-66
2024/02/14 05:26:12;;;;;;;14.07;6.27;;;;;;;-9.17;100.00;100500.50;4976026;28;20810;-67
2024/02/14 05:28:39;;;;;;;8.63;4.97;;;;;;;-9.00;100.00;100513.19;4983172;28;20287;-67
2024/02/14 05:31:05;;;;;;;10.60;5.70;;;;;;;-9.09;100.00;100510.72;4967982;28;20317;-67
2024/02/14 05:33:40;;;;;;;10.67;5.37;;;;;;;-9.02;100.00;100520.06;4973492;28;20134;-67
2024/02/14 05:36:06;;;;;;;9.83;4.97;;;;;;;-9.09;100.00;100515.88;4942311;28;20700;-67
2024/02/14 05:38:34;;;;;;;9.10;5.20;;;;;;;-9.10;100.00;100509.03;4958536;28;20047;-67
2024/02/14 05:41:01;;;;;;;8.67;4.50;;;;;;;-8.97;100.00;100516.59;4955399;29;20294;-67
2024/02/14 05:43:29;;;;;;;8.30;4.80;;;;;;;-8.90;100.00;100519.94;4945331;28;20294;-67
2024/02/14 05:45:55;;;;;;;16.57;5.10;;;;;;;-8.97;100.00;100519.16;4957310;28;20316;-69
2024/02/14 05:48:21;;;;;;;8.30;4.47;;;;;;;-8.82;100.00;100522.44;4954691;28;20105;-70
2024/02/14 05:50:47;;;;;;;9.60;4.23;;;;;;;-8.69;100.00;100532.56;4972676;28;20325;-70
2024/02/14 05:53:14;;;;;;;10.97;4.93;;;;;;;-8.77;100.00;100528.38;4988777;28;20485;-69
2024/02/14 05:55:40;;;;;;;10.77;4.80;;;;;;;-8.61;100.00;100535.94;4955709;28;20301;-68
2024/02/14 05:58:06;;;;;;;10.17;5.07;;;;;;;-8.53;100.00;100531.50;4988523;28;20057;-71
2024/02/14 06:00:33;;;;;;;11.63;5.30;;;;;;;-8.59;100.00;100533.31;4972586;28;20290;-69
2024/02/14 06:03:02;;;;;;;10.30;5.40;;;;;;;-8.46;100.00;100535.72;4974712;28;20453;-70
2024/02/14 06:05:28;;;;;;;6.90;4.43;;;;;;;-8.43;100.00;100539.97;4956979;28;20054;-67
2024/02/14 06:07:54;;;;;;;10.80;5.23;;;;;;;-8.68;100.00;100548.84;4972323;28;20301;-70
2024/02/14 06:10:20;;;;;;;8.87;4.57;;;;;;;-8.77;100.00;100536.94;4956686;28;20441;-69
2024/02/14 06:12:47;;;;;;;10.47;4.97;;;;;;;-8.90;100.00;100543.94;4972504;28;21114;-72
2024/02/14 06:15:14;;;;;;;11.97;5.37;;;;;;;-8.72;100.00;100537.75;4989231;28;20720;-72
2024/02/14 06:17:40;;;;;;;10.80;5.47;;;;;;;-8.52;100.00;100540.97;4980543;28;20282;-75
2024/02/14 06:20:07;;;;;;;10.27;5.00;;;;;;;-8.29;100.00;100546.69;4995025;28;20284;-68
2024/02/14 06:22:36;;;;;;;8.83;4.73;;;;;;;-8.24;100.00;100559.50;4983290;28;20300;-70
2024/02/14 06:25:04;;;;;;;10.10;4.67;;;;;;;-8.18;100.00;100555.06;5032027;28;20715;-69
2024/02/14 06:27:33;;;;;;;12.30;5.90;;;;;;;-8.05;100.00;100564.34;5015637;28;20356;-68
2024/02/14 06:29:59;;;;;;;8.73;4.73;;;;;;;-7.92;100.00;100562.44;4999418;28;20317;-70
2024/02/14 06:32:25;;;;;;;12.20;5.33;;;;;;;-7.99;100.00;100553.94;5032442;28;20049;-68
2024/02/14 06:34:51;;;;;;;10.83;5.37;;;;;;;-7.83;100.00;100555.44;5033084;28;20327;-69
2024/02/14 06:37:21;;;;;;;7.73;4.90;;;;;;;-7.60;100.00;100557.66;5032487;28;20049;-68
2024/02/14 06:39:48;;;;;;;9.73;4.97;;;;;;;-7.58;100.00;100559.34;5032378;28;20292;-68
2024/02/14 06:42:15;;;;;;;13.80;4.70;;;;;;;-7.38;100.00;100566.78;5015015;28;20334;-67
2024/02/14 06:44:41;;;;;;;10.43;5.00;;;;;;;-7.43;100.00;100564.28;5014917;28;20685;-69
2024/02/14 06:47:08;;;;;;;11.17;5.33;;;;;;;-7.15;100.00;100565.50;5031468;28;20374;-69
2024/02/14 06:49:33;;;;;;;11.03;5.73;;;;;;;-7.12;100.00;100562.88;5014590;28;20630;-69
2024/02/14 06:51:59;;;;;;;9.50;4.73;;;;;;;-6.97;100.00;100573.81;5015024;28;20503;-72
2024/02/14 06:54:25;;;;;;;6.73;4.13;;;;;;;-6.74;100.00;100569.09;5014658;28;20124;-67
2024/02/14 06:56:51;;;;;;;10.57;5.40;;;;;;;-6.73;100.00;100563.06;5014867;28;20374;-71
2024/02/14 06:59:17;;;;;;;10.13;4.90;;;;;;;-6.46;100.00;100565.97;5015389;28;20060;-73
2024/02/14 07:01:43;;;;;;;11.23;5.77;;;;;;;-6.24;100.00;100568.97;4982190;28;20041;-67
2024/02/14 07:04:09;;;;;;;9.60;5.10;;;;;;;-6.06;100.00;100572.03;5030494;28;20045;-67
2024/02/14 07:06:35;;;;;;;8.77;4.90;;;;;;;-5.87;100.00;100564.69;4997770;28;20184;-67
2024/02/14 07:09:01;;;;;;;10.07;4.93;;;;;;;-5.70;100.00;100562.56;5013383;28;20041;-67
2024/02/14 07:11:28;;;;;;;9.37;4.30;;;;;;;-5.44;100.00;100555.88;4981695;28;20041;-69
2024/02/14 07:13:54;;;;;;;12.13;5.43;;;;;;;-5.22;100.00;100549.31;5014219;28;20475;-69
2024/02/14 07:16:20;;;;;;;9.73;4.57;;;;;;;-4.86;100.00;100557.03;4981364;28;20073;-68
2024/02/14 07:18:46;;;;;;;11.13;5.33;;;;;;;-4.50;100.00;100548.25;5030852;28;20116;-69
2024/02/14 07:21:12;;;;;;;10.77;5.23;;;;;;;-3.79;100.00;100554.78;5013751;28;20069;-69
2024/02/14 07:23:38;;;;;;;12.77;5.67;;;;;;;-2.92;100.00;100564.09;4997032;28;20993;-69
2024/02/14 07:26:04;;;;;;;12.80;5.90;;;;;;;-2.30;100.00;100552.31;5029894;28;20049;-71
2024/02/14 07:28:33;;;;;;;10.73;5.27;;;;;;;-1.15;98.47;100553.91;5013662;28;20037;-71
2024/02/14 07:30:59;;;;;;;10.07;5.07;;;;;;;-1.13;86.30;100567.72;4981937;28;20072;-70
2024/02/14 07:33:25;;;;;;;9.17;4.80;;;;;;;-0.93;82.08;100563.38;4984137;28;20064;-70
2024/02/14 07:35:50;;;;;;;8.20;4.83;;;;;;;-0.61;79.44;100568.09;5014809;28;20128;-68
2024/02/14 07:38:17;;;;;;;11.23;5.33;;;;;;;-0.32;79.73;100572.03;5030561;28;20037;-70
2024/02/14 07:40:44;;;;;;;8.43;4.87;;;;;;;-0.12;72.78;100572.00;5030668;28;20041;-70
2024/02/14 07:43:28;;;;;;;8.33;4.77;;;;;;;-0.02;73.34;100557.63;5016490;28;20480;-70
2024/02/14 07:45:54;;;;;;;9.97;5.00;;;;;;;-0.23;67.77;100571.66;5029916;28;20053;-70
2024/02/14 07:48:22;;;;;;;13.40;5.33;;;;;;;-0.23;70.31;100572.47;4997263;28;20063;-70
2024/02/14 07:50:48;;;;;;;7.97;4.73;;;;;;;-0.06;67.82;100564.72;4997186;28;20122;-71
2024/02/14 07:53:14;;;;;;;8.83;4.80;;;;;;;0.25;67.68;100581.63;5029924;28;20445;-70
2024/02/14 07:55:40;;;;;;;12.43;5.40;;;;;;;-0.22;67.08;100573.31;5031008;28;20454;-70
2024/02/14 07:58:05;;;;;;;8.60;5.27;;;;;;;-0.84;67.16;100575.16;5013636;28;20041;-71
2024/02/14 08:00:31;;;;;;;8.77;4.20;;;;;;;-0.53;68.47;100575.56;5029881;28;20051;-65
2024/02/14 08:02:57;;;;;;;9.57;5.13;;;;;;;-0.93;66.03;100575.56;4979959;28;20041;-69
2024/02/14 08:05:23;;;;;;;10.80;5.23;;;;;;;-0.69;67.63;100574.56;4996619;28;20060;-67
2024/02/14 08:07:49;;;;;;;10.40;4.67;;;;;;;-0.42;67.63;100586.41;5030309;28;20037;-68
2024/02/14 08:10:15;;;;;;;19.50;5.53;;;;;;;-1.19;66.65;100567.97;5012639;28;20049;-70
2024/02/14 08:12:40;;;;;;;11.83;6.03;;;;;;;-1.88;67.67;100566.38;5012094;28;20046;-71
2024/02/14 08:15:07;;;;;;;12.83;5.67;;;;;;;-1.65;67.98;100581.97;5029209;28;20071;-70
2024/02/14 08:17:33;;;;;;;11.00;5.20;;;;;;;-2.68;71.83;100581.44;5029177;28;20041;-73
2024/02/14 08:20:00;;;;;;;12.30;5.30;;;;;;;-2.79;75.02;100575.75;5033296;28;20048;-72
2024/02/14 08:22:27;;;;;;;20.67;6.43;;;;;;;-2.81;76.01;100573.22;5033674;28;20377;-68
2024/02/14 08:24:53;;;;;;;11.60;5.53;;;;;;;-2.56;77.17;100586.22;5034532;28;20114;-68
2024/02/14 08:27:18;;;;;;;14.10;5.80;;;;;;;-2.45;77.03;100594.50;5035838;28;20464;-68
2024/02/14 08:29:44;;;;;;;16.23;5.60;;;;;;;-2.42;77.16;100594.38;5035452;28;20057;-68
2024/02/14 08:32:10;;;;;;;13.13;5.83;;;;;;;-2.50;75.89;100588.59;5033595;28;20099;-69
2024/02/14 08:34:36;;;;;;;10.90;5.50;;;;;;;-3.06;78.82;100587.09;5033821;28;20053;-68
2024/02/14 08:37:02;;;;;;;12.17;4.97;;;;;;;-3.06;81.15;100594.88;5001332;28;20045;-68
2024/02/14 08:39:28;;;;;;;9.10;4.47;;;;;;;-2.94;83.45;100594.47;5035619;28;20087;-68
2024/02/14 08:41:54;;;;;;;12.93;6.03;;;;;;;-3.96;83.04;100581.25;5017915;28;20136;-67
2024/02/14 08:44:20;;;;;;;8.90;4.73;;;;;;;-4.05;91.92;100588.44;5033385;28;20278;-67
2024/02/14 08:46:48;;;;;;;8.97;4.90;;;;;;;-3.81;94.37;100592.91;5034530;28;20056;-68
2024/02/14 08:49:14;;;;;;;8.87;4.93;;;;;;;-3.82;94.42;100584.28;5034770;28;20120;-68
2024/02/14 08:51:39;;;;;;;9.37;4.80;;;;;;;-3.95;96.33;100590.72;5034097;28;20098;-68
2024/02/14 08:54:06;;;;;;;11.23;5.70;;;;;;;-3.91;94.33;100591.50;5032949;28;20049;-68
2024/02/14 08:56:33;;;;;;;11.30;5.60;;;;;;;-3.81;95.93;100596.38;5033020;28;20463;-68
2024/02/14 08:59:04;;;;;;;11.20;6.33;;;;;;;-4.05;97.10;100596.22;5040117;28;20044;-69
2024/02/14 09:01:30;;;;;;;10.80;5.30;;;;;;;-4.14;100.00;100586.97;5036590;28;20105;-69
2024/02/14 09:03:56;;;;;;;7.30;4.60;;;;;;;-3.83;100.00;100599.91;5053651;28;20422;-68
2024/02/14 09:06:22;;;;;;;10.20;5.30;;;;;;;-3.53;98.18;100592.03;5052829;28;20463;-68
2024/02/14 09:08:50;;;;;;;12.97;5.23;;;;;;;-3.39;97.14;100601.13;5054257;28;20040;-72
2024/02/14 09:11:16;;;;;;;7.27;4.77;;;;;;;-3.50;95.47;100607.53;5054044;28;20368;-73
2024/02/14 09:13:42;;;;;;;8.07;4.47;;;;;;;-3.24;97.89;100585.91;5019456;28;20130;-72
2024/02/14 09:16:10;;;;;;;9.23;5.00;;;;;;;-3.03;95.74;100592.19;5052650;28;20475;-70
2024/02/14 09:18:37;;;;;;;11.17;4.67;;;;;;;-2.85;96.57;100604.56;5052610;28;20379;-73
2024/02/14 09:21:05;;;;;;;10.70;4.77;;;;;;;-2.60;97.31;100600.25;5035876;28;20041;-71
2024/02/14 09:23:32;;;;;;;10.87;4.40;;;;;;;-2.53;98.85;100606.91;5052587;28;20143;-70
2024/02/14 09:25:58;;;;;;;8.97;5.47;;;;;;;-2.65;95.24;100613.41;5053235;28;20362;-72
2024/02/14 09:28:27;;;;;;;9.60;5.03;;;;;;;-2.80;94.87;100618.25;5053295;28;20055;-70
2024/02/14 09:30:54;;;;;;;8.87;5.10;;;;;;;-2.66;97.07;100609.06;5034947;28;20549;-70
2024/02/14 09:33:20;;;;;;;9.53;5.33;;;;;;;-2.42;96.13;100610.00;5047400;28;20123;-70
2024/02/14 09:35:47;;;;;;;9.07;4.17;;;;;;;-2.20;95.19;100610.94;5041543;28;20041;-72
2024/02/14 09:38:14;;;;;;;10.60;4.47;;;;;;;-1.96;95.76;100597.91;5042853;28;20044;-73
2024/02/14 09:40:41;;;;;;;14.03;5.10;;;;;;;-2.45;93.04;100608.38;5028606;28;20136;-71
2024/02/14 09:43:30;;;;;;;8.83;5.47;;;;;;;-2.42;93.11;100604.78;5030901;28;20428;-74
2024/02/14 09:45:56;;;;;;;10.37;4.50;;;;;;;-2.54;93.89;100602.63;5035724;28;20064;-72
2024/02/14 09:48:22;;;;;;;11.27;5.30;;;;;;;-2.51;93.96;100610.31;5015534;28;20470;-71
2024/02/14 09:50:48;;;;;;;14.90;5.83;;;;;;;-2.35;93.47;100608.88;5015961;28;20452;-72
2024/02/14 09:53:15;;;;;;;10.17;4.50;;;;;;;-2.07;94.72;100609.59;5015302;28;20049;-72
2024/02/14 09:55:41;;;;;;;9.93;4.53;;;;;;;-1.77;95.53;100605.88;5015414;28;20064;-72
2024/02/14 09:58:08;;;;;;;14.13;5.57;;;;;;;-2.05;92.15;100606.03;5042182;28;20045;-71
2024/02/14 10:00:35;;;;;;;10.03;4.53;;;;;;;-1.73;91.35;100610.03;5013853;28;20041;-72
2024/02/14 10:03:01;;;;;;;15.60;5.33;;;;;;;-1.72;89.54;100609.13;5031151;28;20049;-71
2024/02/14 10:05:28;;;;;;;7.23;4.47;;;;;;;-1.76;88.21;100611.00;5012653;28;20098;-71
2024/02/14 10:07:56;;;;;;;10.97;5.07;;;;;;;-2.13;88.72;100612.41;5014235;28;20511;-71
2024/02/14 10:10:22;;;;;;;13.00;4.77;;;;;;;-2.66;93.70;100600.44;5039032;28;20052;-71
2024/02/14 10:12:48;;;;;;;15.90;6.20;;;;;;;-2.84;95.37;100604.50;5016777;28;20045;-71
2024/02/14 10:15:14;;;;;;;13.73;6.13;;;;;;;-2.86;97.77;100597.69;5050521;28;20083;-71
2024/02/14 10:17:42;;;;;;;13.73;5.03;;;;;;;-2.53;97.39;100607.78;5017666;28;20122;-73
2024/02/14 10:20:09;;;;;;;12.10;5.60;;;;;;;-2.37;99.46;100603.72;5052215;28;20107;-72
2024/02/14 10:22:36;;;;;;;7.80;4.50;;;;;;;-2.19;99.62;100615.22;5051997;28;20049;-74
2024/02/14 10:25:08;;;;;;;6.67;4.03;;;;;;;-1.92;95.96;100609.00;5051676;28;20490;-74
2024/02/14 10:27:38;;;;;;;8.07;4.23;;;;;;;-1.78;95.43;100607.63;5030501;28;20541;-73
2024/02/14 10:30:09;;;;;;;19.40;6.03;;;;;;;-2.26;93.72;100618.97;5015849;28;20045;-73
2024/02/14 10:32:38;;;;;;;10.50;4.68;;;;;;;-2.49;98.08;100613.72;5015662;28;20065;-72
2024/02/14 10:35:08;;;;;;;11.57;5.23;;;;;;;-2.40;98.13;100610.81;5015563;28;20056;-73
2024/02/14 10:37:36;;;;;;;11.38;4.95;;;;;;;-2.21;97.93;100599.69;5032326;28;20065;-71
2024/02/14 10:40:04;;;;;;;10.80;5.93;;;;;;;-2.49;100.00;100609.34;5031182;28;20099;-71
2024/02/14 10:42:31;;;;;;;11.50;5.20;;;;;;;-2.43;100.00;100593.53;5015154;28;20133;-72
2024/02/14 10:44:57;;;;;;;10.87;4.83;;;;;;;-2.31;100.00;100608.72;5031560;28;20041;-72
2024/02/14 10:47:29;;;;;;;9.23;4.27;;;;;;;-2.34;100.00;100601.00;5048415;28;20064;-73
2024/02/14 10:50:00;;;;;;;13.77;4.77;;;;;;;-2.15;100.00;100599.47;5033242;28;20464;-72
2024/02/14 10:52:33;;;;;;;11.13;4.40;;;;;;;-2.07;99.38;100594.81;5024212;28;20051;-73
2024/02/14 10:54:59;;;;;;;9.83;4.37;;;;;;;-2.01;97.19;100598.94;5047561;28;20543;-71
2024/02/14 10:57:27;;;;;;;12.57;4.90;;;;;;;-2.21;100.00;100617.03;5039914;28;20056;-73
2024/02/14 10:59:53;;;;;;;13.17;5.13;;;;;;;-2.25;100.00;100607.66;5016483;28;20477;-74
2024/02/14 11:02:20;;;;;;;9.83;5.13;;;;;;;-2.24;100.00;100620.59;5032990;28;20056;-69
2024/02/14 11:04:46;;;;;;;9.83;4.30;;;;;;;-2.19;100.00;100615.22;5053788;28;20456;-73
2024/02/14 11:07:13;;;;;;;14.10;5.43;;;;;;;-2.06;100.00;100617.34;5027523;28;20048;-73
2024/02/14 11:09:38;;;;;;;10.90;4.93;;;;;;;-2.03;97.85;100608.59;5027996;28;20423;-74
2024/02/14 11:12:09;;;;;;;8.67;4.80;;;;;;;-1.98;98.08;100611.84;5017470;28;20124;-74
2024/02/14 11:14:41;;;;;;;9.95;4.90;;;;;;;-2.10;99.68;100613.16;5017194;28;20475;-74
2024/02/14 11:17:10;;;;;;;12.67;5.60;;;;;;;-2.13;100.00;100608.06;5049932;28;20049;-75
2024/02/14 11:19:36;;;;;;;21.50;6.63;;;;;;;-2.31;100.00;100618.28;5050039;28;20040;-74
2024/02/14 11:22:18;;;;;;;10.73;5.47;;;;;;;-2.17;100.00;100618.63;5050265;28;20040;-74
2024/02/14 11:24:47;;;;;;;12.53;4.90;;;;;;;-1.99;100.00;100605.81;5049790;28;20052;-74
2024/02/14 11:27:13;;;;;;;10.00;4.40;;;;;;;-1.90;100.00;100610.69;4993720;28;20144;-73